Huvudsida
METAR-TAF:

METAR-TAF

Flygplatser :

Châteaudun, Frankrike

latitud: 48-03N, longitud: 001-23E, höjd: 134 m

Aktuellt väderrapport

Denna rapport gjordes för 16 minuter sedan, klockan 23:00 UTC
Vind 7 kt från nord/nordost
Temperatur 15°C
Fuktighet 77%
Tryck 1031 hPa
Sikt 10 km eller mer
Inga moln under 1 500 m eller inga cumulonimbus

METAR: LFOC 272300Z AUTO 02007KT CAVOK 15/11 Q1031

Tid: 01:16 (23:16 UTC)

Väderprognos

Denna rapport gjordes för 9 timmar och 16 minuter sedan, klockan 14:00 UTC
Prognos gäller från 27 kl. 15 UTC till 28 kl. 15 UTC
Vind 13 kt från ost/nordost
Sikt 10 km eller mer
Inga moln under 1 500 m eller inga cumulonimbus

TAF: LFOC 271400Z 2715/2815 06013KT CAVOK

Aktuella väderrapporter och prognoser från 4000 flygplatser (METAR- och TAF-rapporter).

De tillgängliga stationerna syns som gula och röda prickar på kartan.

För musen över prickarna för att se namnen på stationerna.

Klicka sedan för att få väderrapporter och prognoser.

För att ändra kartan: Klicka på de gröna knapparna med ett svart kors på för att zooma in; den gröna knappen med ett streck på för att zooma ut; eller på de gröna pilarna för angränsande kartor.


METAR-TAF: